sensor_id;sensor_type;location;lat;lon;timestamp;P1;durP1;ratioP1;P2;durP2;ratioP2
11151;SDS011;5630;49.342;10.802;2022-10-13T00:01:47;35.07;;;24.80;;
11151;SDS011;5630;49.342;10.802;2022-10-13T00:04:13;35.90;;;25.50;;
11151;SDS011;5630;49.342;10.802;2022-10-13T00:06:38;36.97;;;26.80;;
11151;SDS011;5630;49.342;10.802;2022-10-13T00:09:04;36.30;;;25.53;;
11151;SDS011;5630;49.342;10.802;2022-10-13T00:11:30;38.37;;;26.23;;
11151;SDS011;5630;49.342;10.802;2022-10-13T00:13:57;33.03;;;24.97;;
11151;SDS011;5630;49.342;10.802;2022-10-13T00:16:25;40.43;;;26.63;;
11151;SDS011;5630;49.342;10.802;2022-10-13T00:18:51;39.83;;;27.07;;
11151;SDS011;5630;49.342;10.802;2022-10-13T00:21:18;39.93;;;27.47;;
11151;SDS011;5630;49.342;10.802;2022-10-13T00:23:48;42.20;;;29.93;;
11151;SDS011;5630;49.342;10.802;2022-10-13T00:26:15;38.17;;;27.40;;
11151;SDS011;5630;49.342;10.802;2022-10-13T00:28:41;40.83;;;28.30;;
11151;SDS011;5630;49.342;10.802;2022-10-13T00:31:14;41.00;;;28.17;;
11151;SDS011;5630;49.342;10.802;2022-10-13T00:33:39;45.03;;;28.87;;
11151;SDS011;5630;49.342;10.802;2022-10-13T00:36:05;43.10;;;29.90;;
11151;SDS011;5630;49.342;10.802;2022-10-13T00:38:30;39.60;;;27.43;;
11151;SDS011;5630;49.342;10.802;2022-10-13T00:40:56;40.27;;;26.93;;
11151;SDS011;5630;49.342;10.802;2022-10-13T00:43:26;38.87;;;28.30;;
11151;SDS011;5630;49.342;10.802;2022-10-13T00:46:10;42.90;;;27.47;;
11151;SDS011;5630;49.342;10.802;2022-10-13T00:48:36;41.10;;;27.70;;
11151;SDS011;5630;49.342;10.802;2022-10-13T00:51:01;38.70;;;28.17;;
11151;SDS011;5630;49.342;10.802;2022-10-13T00:53:28;36.73;;;27.23;;
11151;SDS011;5630;49.342;10.802;2022-10-13T00:55:56;35.90;;;25.03;;
11151;SDS011;5630;49.342;10.802;2022-10-13T00:58:22;35.20;;;25.33;;
11151;SDS011;5630;49.342;10.802;2022-10-13T01:00:50;35.83;;;24.80;;
11151;SDS011;5630;49.342;10.802;2022-10-13T01:03:17;32.23;;;24.60;;
11151;SDS011;5630;49.342;10.802;2022-10-13T01:05:44;30.47;;;23.63;;
11151;SDS011;5630;49.342;10.802;2022-10-13T01:08:11;26.63;;;21.87;;
11151;SDS011;5630;49.342;10.802;2022-10-13T01:22:17;24.10;;;19.93;;
11151;SDS011;5630;49.342;10.802;2022-10-13T01:27:37;26.07;;;20.27;;
11151;SDS011;5630;49.342;10.802;2022-10-13T01:30:19;23.20;;;19.00;;
11151;SDS011;5630;49.342;10.802;2022-10-13T01:32:49;22.20;;;19.10;;
11151;SDS011;5630;49.342;10.802;2022-10-13T01:38:04;22.83;;;18.90;;
11151;SDS011;5630;49.342;10.802;2022-10-13T01:40:46;23.37;;;19.47;;
11151;SDS011;5630;49.342;10.802;2022-10-13T01:43:30;22.70;;;19.10;;
11151;SDS011;5630;49.342;10.802;2022-10-13T01:46:15;25.70;;;20.03;;
11151;SDS011;5630;49.342;10.802;2022-10-13T01:48:54;22.67;;;18.57;;
11151;SDS011;5630;49.342;10.802;2022-10-13T01:51:22;23.93;;;18.20;;
11151;SDS011;5630;49.342;10.802;2022-10-13T01:53:50;29.40;;;20.43;;
11151;SDS011;5630;49.342;10.802;2022-10-13T01:56:16;24.27;;;20.30;;
11151;SDS011;5630;49.342;10.802;2022-10-13T01:58:41;24.30;;;20.93;;
11151;SDS011;5630;49.342;10.802;2022-10-13T02:03:49;22.87;;;20.33;;
11151;SDS011;5630;49.342;10.802;2022-10-13T02:06:21;27.07;;;20.20;;
11151;SDS011;5630;49.342;10.802;2022-10-13T02:11:40;27.73;;;21.23;;
11151;SDS011;5630;49.342;10.802;2022-10-13T02:14:15;27.67;;;21.77;;
11151;SDS011;5630;49.342;10.802;2022-10-13T02:16:45;27.83;;;21.70;;
11151;SDS011;5630;49.342;10.802;2022-10-13T02:19:14;27.10;;;20.93;;
11151;SDS011;5630;49.342;10.802;2022-10-13T02:21:41;32.40;;;21.00;;
11151;SDS011;5630;49.342;10.802;2022-10-13T02:24:07;29.07;;;21.57;;
11151;SDS011;5630;49.342;10.802;2022-10-13T02:26:34;26.50;;;21.23;;
11151;SDS011;5630;49.342;10.802;2022-10-13T02:29:11;26.47;;;20.30;;
11151;SDS011;5630;49.342;10.802;2022-10-13T02:31:38;28.13;;;19.63;;
11151;SDS011;5630;49.342;10.802;2022-10-13T02:34:05;26.13;;;21.23;;
11151;SDS011;5630;49.342;10.802;2022-10-13T02:36:30;27.17;;;21.17;;
11151;SDS011;5630;49.342;10.802;2022-10-13T02:38:56;27.60;;;20.40;;
11151;SDS011;5630;49.342;10.802;2022-10-13T02:41:22;30.07;;;22.43;;
11151;SDS011;5630;49.342;10.802;2022-10-13T02:43:47;31.57;;;23.10;;
11151;SDS011;5630;49.342;10.802;2022-10-13T02:46:13;29.50;;;22.50;;
11151;SDS011;5630;49.342;10.802;2022-10-13T02:48:38;31.83;;;22.73;;
11151;SDS011;5630;49.342;10.802;2022-10-13T02:51:04;31.13;;;23.07;;
11151;SDS011;5630;49.342;10.802;2022-10-13T02:53:30;32.13;;;23.00;;
11151;SDS011;5630;49.342;10.802;2022-10-13T02:55:55;35.13;;;26.37;;
11151;SDS011;5630;49.342;10.802;2022-10-13T02:58:21;36.03;;;26.30;;
11151;SDS011;5630;49.342;10.802;2022-10-13T03:00:46;36.60;;;25.63;;
11151;SDS011;5630;49.342;10.802;2022-10-13T03:03:12;35.73;;;27.13;;
11151;SDS011;5630;49.342;10.802;2022-10-13T03:05:38;36.50;;;26.90;;
11151;SDS011;5630;49.342;10.802;2022-10-13T03:08:03;35.53;;;25.80;;
11151;SDS011;5630;49.342;10.802;2022-10-13T03:10:29;32.70;;;25.07;;
11151;SDS011;5630;49.342;10.802;2022-10-13T03:12:56;31.93;;;25.70;;
11151;SDS011;5630;49.342;10.802;2022-10-13T03:15:22;28.17;;;24.53;;
11151;SDS011;5630;49.342;10.802;2022-10-13T03:17:48;29.60;;;24.90;;
11151;SDS011;5630;49.342;10.802;2022-10-13T03:20:14;29.80;;;24.20;;
11151;SDS011;5630;49.342;10.802;2022-10-13T03:22:40;28.07;;;24.13;;
11151;SDS011;5630;49.342;10.802;2022-10-13T03:25:05;26.57;;;23.77;;
11151;SDS011;5630;49.342;10.802;2022-10-13T03:27:31;26.80;;;23.27;;
11151;SDS011;5630;49.342;10.802;2022-10-13T03:29:57;27.03;;;23.67;;
11151;SDS011;5630;49.342;10.802;2022-10-13T03:32:23;26.23;;;22.67;;
11151;SDS011;5630;49.342;10.802;2022-10-13T03:34:48;26.57;;;23.73;;
11151;SDS011;5630;49.342;10.802;2022-10-13T03:37:15;27.83;;;24.70;;
11151;SDS011;5630;49.342;10.802;2022-10-13T03:39:41;29.93;;;26.37;;
11151;SDS011;5630;49.342;10.802;2022-10-13T03:42:06;28.93;;;25.80;;
11151;SDS011;5630;49.342;10.802;2022-10-13T03:44:32;29.23;;;25.50;;
11151;SDS011;5630;49.342;10.802;2022-10-13T03:46:58;29.47;;;26.03;;
11151;SDS011;5630;49.342;10.802;2022-10-13T03:49:23;27.23;;;23.63;;
11151;SDS011;5630;49.342;10.802;2022-10-13T03:51:49;28.33;;;24.83;;
11151;SDS011;5630;49.342;10.802;2022-10-13T03:54:14;30.67;;;24.37;;
11151;SDS011;5630;49.342;10.802;2022-10-13T03:56:40;28.30;;;25.23;;
11151;SDS011;5630;49.342;10.802;2022-10-13T03:59:06;27.53;;;23.60;;
11151;SDS011;5630;49.342;10.802;2022-10-13T04:01:32;28.23;;;23.60;;
11151;SDS011;5630;49.342;10.802;2022-10-13T04:03:58;29.17;;;25.77;;
11151;SDS011;5630;49.342;10.802;2022-10-13T04:06:26;27.27;;;23.27;;
11151;SDS011;5630;49.342;10.802;2022-10-13T04:08:52;26.80;;;22.40;;
11151;SDS011;5630;49.342;10.802;2022-10-13T04:11:19;32.57;;;25.47;;
11151;SDS011;5630;49.342;10.802;2022-10-13T04:13:45;29.37;;;24.87;;
11151;SDS011;5630;49.342;10.802;2022-10-13T04:16:15;29.70;;;24.97;;
11151;SDS011;5630;49.342;10.802;2022-10-13T04:18:49;28.57;;;24.80;;
11151;SDS011;5630;49.342;10.802;2022-10-13T04:21:17;29.57;;;25.27;;
11151;SDS011;5630;49.342;10.802;2022-10-13T04:23:43;30.67;;;25.70;;
11151;SDS011;5630;49.342;10.802;2022-10-13T04:26:19;28.10;;;23.67;;
11151;SDS011;5630;49.342;10.802;2022-10-13T04:28:46;30.43;;;25.93;;
11151;SDS011;5630;49.342;10.802;2022-10-13T04:31:13;28.63;;;25.53;;
11151;SDS011;5630;49.342;10.802;2022-10-13T04:33:39;27.83;;;24.80;;
11151;SDS011;5630;49.342;10.802;2022-10-13T04:36:06;28.07;;;24.87;;
11151;SDS011;5630;49.342;10.802;2022-10-13T04:38:33;28.93;;;25.70;;
11151;SDS011;5630;49.342;10.802;2022-10-13T04:41:00;26.83;;;23.87;;
11151;SDS011;5630;49.342;10.802;2022-10-13T04:43:28;28.80;;;25.63;;
11151;SDS011;5630;49.342;10.802;2022-10-13T04:45:58;30.20;;;24.60;;
11151;SDS011;5630;49.342;10.802;2022-10-13T04:48:31;32.03;;;25.27;;
11151;SDS011;5630;49.342;10.802;2022-10-13T04:51:01;27.17;;;23.93;;
11151;SDS011;5630;49.342;10.802;2022-10-13T04:53:28;26.47;;;23.53;;
11151;SDS011;5630;49.342;10.802;2022-10-13T04:56:03;27.00;;;23.93;;
11151;SDS011;5630;49.342;10.802;2022-10-13T04:58:34;28.60;;;24.93;;
11151;SDS011;5630;49.342;10.802;2022-10-13T05:01:01;29.13;;;25.57;;
11151;SDS011;5630;49.342;10.802;2022-10-13T05:03:28;25.90;;;23.10;;
11151;SDS011;5630;49.342;10.802;2022-10-13T05:05:53;26.10;;;23.30;;
11151;SDS011;5630;49.342;10.802;2022-10-13T05:08:20;26.33;;;23.47;;
11151;SDS011;5630;49.342;10.802;2022-10-13T05:10:53;29.80;;;24.83;;
11151;SDS011;5630;49.342;10.802;2022-10-13T05:13:23;28.40;;;24.73;;
11151;SDS011;5630;49.342;10.802;2022-10-13T05:15:49;28.50;;;25.47;;
11151;SDS011;5630;49.342;10.802;2022-10-13T05:18:15;26.43;;;23.60;;
11151;SDS011;5630;49.342;10.802;2022-10-13T05:20:41;34.27;;;25.50;;
11151;SDS011;5630;49.342;10.802;2022-10-13T05:23:06;28.63;;;24.10;;
11151;SDS011;5630;49.342;10.802;2022-10-13T05:25:35;26.87;;;23.77;;
11151;SDS011;5630;49.342;10.802;2022-10-13T05:28:02;29.20;;;25.60;;
11151;SDS011;5630;49.342;10.802;2022-10-13T05:30:28;29.57;;;24.77;;
11151;SDS011;5630;49.342;10.802;2022-10-13T05:32:54;30.47;;;25.40;;
11151;SDS011;5630;49.342;10.802;2022-10-13T05:35:19;27.17;;;23.07;;
11151;SDS011;5630;49.342;10.802;2022-10-13T05:37:45;37.93;;;23.67;;
11151;SDS011;5630;49.342;10.802;2022-10-13T05:40:10;29.63;;;23.73;;
11151;SDS011;5630;49.342;10.802;2022-10-13T05:42:36;32.67;;;25.93;;
11151;SDS011;5630;49.342;10.802;2022-10-13T05:45:02;30.57;;;24.70;;
11151;SDS011;5630;49.342;10.802;2022-10-13T05:47:28;32.87;;;24.20;;
11151;SDS011;5630;49.342;10.802;2022-10-13T05:49:54;27.67;;;22.87;;
11151;SDS011;5630;49.342;10.802;2022-10-13T05:52:20;29.43;;;22.87;;
11151;SDS011;5630;49.342;10.802;2022-10-13T05:54:48;27.73;;;22.77;;
11151;SDS011;5630;49.342;10.802;2022-10-13T05:57:21;24.47;;;21.87;;
11151;SDS011;5630;49.342;10.802;2022-10-13T05:59:53;24.13;;;20.50;;
11151;SDS011;5630;49.342;10.802;2022-10-13T06:02:22;23.90;;;21.30;;
11151;SDS011;5630;49.342;10.802;2022-10-13T06:04:51;25.37;;;22.13;;
11151;SDS011;5630;49.342;10.802;2022-10-13T06:07:20;26.50;;;21.00;;
11151;SDS011;5630;49.342;10.802;2022-10-13T06:09:46;24.83;;;20.10;;
11151;SDS011;5630;49.342;10.802;2022-10-13T06:12:11;24.63;;;20.07;;
11151;SDS011;5630;49.342;10.802;2022-10-13T06:14:37;29.23;;;20.33;;
11151;SDS011;5630;49.342;10.802;2022-10-13T06:17:03;35.23;;;21.57;;
11151;SDS011;5630;49.342;10.802;2022-10-13T06:19:28;23.67;;;20.77;;
11151;SDS011;5630;49.342;10.802;2022-10-13T06:21:54;24.70;;;21.03;;
11151;SDS011;5630;49.342;10.802;2022-10-13T06:24:19;25.27;;;21.03;;
11151;SDS011;5630;49.342;10.802;2022-10-13T06:26:45;23.67;;;20.63;;
11151;SDS011;5630;49.342;10.802;2022-10-13T06:29:10;24.53;;;20.23;;
11151;SDS011;5630;49.342;10.802;2022-10-13T06:31:36;25.87;;;21.70;;
11151;SDS011;5630;49.342;10.802;2022-10-13T06:34:01;28.43;;;20.80;;
11151;SDS011;5630;49.342;10.802;2022-10-13T06:36:27;25.57;;;21.33;;
11151;SDS011;5630;49.342;10.802;2022-10-13T06:38:53;27.10;;;21.77;;
11151;SDS011;5630;49.342;10.802;2022-10-13T06:41:18;27.27;;;21.97;;
11151;SDS011;5630;49.342;10.802;2022-10-13T06:43:44;60.43;;;24.10;;
11151;SDS011;5630;49.342;10.802;2022-10-13T06:46:10;31.57;;;24.50;;
11151;SDS011;5630;49.342;10.802;2022-10-13T06:48:36;29.77;;;24.40;;
11151;SDS011;5630;49.342;10.802;2022-10-13T06:51:06;31.13;;;24.57;;
11151;SDS011;5630;49.342;10.802;2022-10-13T06:53:34;30.83;;;23.00;;
11151;SDS011;5630;49.342;10.802;2022-10-13T06:56:00;30.87;;;24.60;;
11151;SDS011;5630;49.342;10.802;2022-10-13T06:58:27;35.77;;;26.07;;
11151;SDS011;5630;49.342;10.802;2022-10-13T07:00:53;33.37;;;25.37;;
11151;SDS011;5630;49.342;10.802;2022-10-13T07:03:19;36.57;;;26.03;;
11151;SDS011;5630;49.342;10.802;2022-10-13T07:05:45;35.83;;;24.90;;
11151;SDS011;5630;49.342;10.802;2022-10-13T07:08:11;34.27;;;25.47;;
11151;SDS011;5630;49.342;10.802;2022-10-13T07:10:37;31.30;;;24.10;;
11151;SDS011;5630;49.342;10.802;2022-10-13T07:13:03;35.50;;;25.13;;
11151;SDS011;5630;49.342;10.802;2022-10-13T07:15:28;41.97;;;29.40;;
11151;SDS011;5630;49.342;10.802;2022-10-13T07:17:54;37.17;;;27.03;;
11151;SDS011;5630;49.342;10.802;2022-10-13T07:20:21;35.50;;;26.07;;
11151;SDS011;5630;49.342;10.802;2022-10-13T07:22:47;33.23;;;25.60;;
11151;SDS011;5630;49.342;10.802;2022-10-13T07:25:13;34.47;;;26.00;;
11151;SDS011;5630;49.342;10.802;2022-10-13T07:27:39;33.80;;;27.40;;
11151;SDS011;5630;49.342;10.802;2022-10-13T07:30:05;34.33;;;27.03;;
11151;SDS011;5630;49.342;10.802;2022-10-13T07:32:32;34.00;;;26.57;;
11151;SDS011;5630;49.342;10.802;2022-10-13T07:34:59;42.93;;;28.23;;
11151;SDS011;5630;49.342;10.802;2022-10-13T07:37:24;36.70;;;26.87;;
11151;SDS011;5630;49.342;10.802;2022-10-13T07:39:50;37.27;;;27.43;;
11151;SDS011;5630;49.342;10.802;2022-10-13T07:42:16;35.50;;;26.50;;
11151;SDS011;5630;49.342;10.802;2022-10-13T07:44:42;38.30;;;26.83;;
11151;SDS011;5630;49.342;10.802;2022-10-13T07:47:08;37.43;;;26.90;;
11151;SDS011;5630;49.342;10.802;2022-10-13T07:49:33;39.57;;;27.67;;
11151;SDS011;5630;49.342;10.802;2022-10-13T07:51:59;39.93;;;27.87;;
11151;SDS011;5630;49.342;10.802;2022-10-13T07:54:25;37.03;;;26.83;;
11151;SDS011;5630;49.342;10.802;2022-10-13T07:56:51;38.17;;;27.97;;
11151;SDS011;5630;49.342;10.802;2022-10-13T07:59:18;35.67;;;25.90;;
11151;SDS011;5630;49.342;10.802;2022-10-13T08:01:43;38.50;;;28.10;;
11151;SDS011;5630;49.342;10.802;2022-10-13T08:04:09;38.67;;;28.67;;
11151;SDS011;5630;49.342;10.802;2022-10-13T08:06:34;44.80;;;29.07;;
11151;SDS011;5630;49.342;10.802;2022-10-13T08:09:00;41.67;;;28.87;;
11151;SDS011;5630;49.342;10.802;2022-10-13T08:11:27;43.90;;;29.43;;
11151;SDS011;5630;49.342;10.802;2022-10-13T08:13:53;42.37;;;29.83;;
11151;SDS011;5630;49.342;10.802;2022-10-13T08:16:20;42.33;;;29.67;;
11151;SDS011;5630;49.342;10.802;2022-10-13T08:18:46;47.87;;;28.77;;
11151;SDS011;5630;49.342;10.802;2022-10-13T08:21:12;44.13;;;31.37;;
11151;SDS011;5630;49.342;10.802;2022-10-13T08:23:41;39.87;;;29.13;;
11151;SDS011;5630;49.342;10.802;2022-10-13T08:26:12;37.23;;;27.13;;
11151;SDS011;5630;49.342;10.802;2022-10-13T08:28:40;39.90;;;27.83;;
11151;SDS011;5630;49.342;10.802;2022-10-13T08:31:05;40.03;;;27.90;;
11151;SDS011;5630;49.342;10.802;2022-10-13T08:33:32;43.37;;;28.83;;
11151;SDS011;5630;49.342;10.802;2022-10-13T08:35:57;40.63;;;27.90;;
11151;SDS011;5630;49.342;10.802;2022-10-13T08:38:23;39.57;;;28.63;;
11151;SDS011;5630;49.342;10.802;2022-10-13T08:40:49;41.40;;;29.37;;
11151;SDS011;5630;49.342;10.802;2022-10-13T08:43:16;38.07;;;27.93;;
11151;SDS011;5630;49.342;10.802;2022-10-13T08:45:44;39.13;;;27.53;;
11151;SDS011;5630;49.342;10.802;2022-10-13T08:48:21;44.63;;;30.73;;
11151;SDS011;5630;49.342;10.802;2022-10-13T08:50:51;43.60;;;29.20;;
11151;SDS011;5630;49.342;10.802;2022-10-13T08:53:23;37.80;;;27.23;;
11151;SDS011;5630;49.342;10.802;2022-10-13T08:58:30;41.60;;;27.63;;
11151;SDS011;5630;49.342;10.802;2022-10-13T09:01:10;40.17;;;27.93;;
11151;SDS011;5630;49.342;10.802;2022-10-13T09:03:46;42.87;;;28.37;;
11151;SDS011;5630;49.342;10.802;2022-10-13T09:06:21;39.17;;;27.50;;
11151;SDS011;5630;49.342;10.802;2022-10-13T09:11:30;43.53;;;27.40;;
11151;SDS011;5630;49.342;10.802;2022-10-13T09:13:59;37.73;;;26.67;;
11151;SDS011;5630;49.342;10.802;2022-10-13T09:16:28;43.53;;;28.63;;
11151;SDS011;5630;49.342;10.802;2022-10-13T09:21:46;36.97;;;25.10;;
11151;SDS011;5630;49.342;10.802;2022-10-13T09:24:20;41.10;;;28.23;;
11151;SDS011;5630;49.342;10.802;2022-10-13T09:26:48;45.17;;;29.27;;
11151;SDS011;5630;49.342;10.802;2022-10-13T09:29:20;41.40;;;27.47;;
11151;SDS011;5630;49.342;10.802;2022-10-13T09:31:49;42.83;;;28.63;;
11151;SDS011;5630;49.342;10.802;2022-10-13T09:37:00;42.63;;;28.37;;
11151;SDS011;5630;49.342;10.802;2022-10-13T09:39:28;41.93;;;26.70;;
11151;SDS011;5630;49.342;10.802;2022-10-13T09:45:12;39.53;;;26.20;;
11151;SDS011;5630;49.342;10.802;2022-10-13T09:47:41;38.27;;;26.53;;
11151;SDS011;5630;49.342;10.802;2022-10-13T09:50:16;40.63;;;26.10;;
11151;SDS011;5630;49.342;10.802;2022-10-13T09:52:45;37.87;;;27.13;;
11151;SDS011;5630;49.342;10.802;2022-10-13T09:58:09;37.67;;;26.33;;
11151;SDS011;5630;49.342;10.802;2022-10-13T10:00:59;40.97;;;28.43;;
11151;SDS011;5630;49.342;10.802;2022-10-13T10:03:31;42.83;;;28.60;;
11151;SDS011;5630;49.342;10.802;2022-10-13T10:06:02;40.77;;;28.10;;
11151;SDS011;5630;49.342;10.802;2022-10-13T10:11:11;37.83;;;26.13;;
11151;SDS011;5630;49.342;10.802;2022-10-13T10:13:41;40.53;;;27.20;;
11151;SDS011;5630;49.342;10.802;2022-10-13T10:16:10;45.50;;;28.73;;
11151;SDS011;5630;49.342;10.802;2022-10-13T10:19:15;36.03;;;26.93;;
11151;SDS011;5630;49.342;10.802;2022-10-13T10:21:48;39.00;;;27.73;;
11151;SDS011;5630;49.342;10.802;2022-10-13T10:27:29;43.23;;;28.20;;
11151;SDS011;5630;49.342;10.802;2022-10-13T10:30:01;36.57;;;26.90;;
11151;SDS011;5630;49.342;10.802;2022-10-13T10:38:11;33.90;;;24.13;;
11151;SDS011;5630;49.342;10.802;2022-10-13T10:41:35;37.70;;;26.13;;
11151;SDS011;5630;49.342;10.802;2022-10-13T10:46:36;39.60;;;24.50;;
11151;SDS011;5630;49.342;10.802;2022-10-13T10:49:11;37.20;;;25.53;;
11151;SDS011;5630;49.342;10.802;2022-10-13T10:51:40;32.33;;;24.40;;
11151;SDS011;5630;49.342;10.802;2022-10-13T10:54:16;35.67;;;25.30;;
11151;SDS011;5630;49.342;10.802;2022-10-13T10:57:14;33.63;;;24.47;;
11151;SDS011;5630;49.342;10.802;2022-10-13T11:02:35;29.23;;;22.57;;
11151;SDS011;5630;49.342;10.802;2022-10-13T11:05:16;32.17;;;22.73;;
11151;SDS011;5630;49.342;10.802;2022-10-13T11:13:05;29.13;;;21.70;;
11151;SDS011;5630;49.342;10.802;2022-10-13T11:15:41;26.67;;;21.00;;
11151;SDS011;5630;49.342;10.802;2022-10-13T11:21:23;33.43;;;26.10;;
11151;SDS011;5630;49.342;10.802;2022-10-13T11:23:49;32.47;;;22.73;;
11151;SDS011;5630;49.342;10.802;2022-10-13T11:28:50;36.80;;;22.80;;
11151;SDS011;5630;49.342;10.802;2022-10-13T11:31:23;29.37;;;21.43;;
11151;SDS011;5630;49.342;10.802;2022-10-13T11:33:55;28.03;;;21.67;;
11151;SDS011;5630;49.342;10.802;2022-10-13T11:36:29;30.70;;;21.47;;
11151;SDS011;5630;49.342;10.802;2022-10-13T11:53:18;28.03;;;19.67;;
11151;SDS011;5630;49.342;10.802;2022-10-13T12:00:58;23.43;;;17.67;;
11151;SDS011;5630;49.342;10.802;2022-10-13T12:03:29;28.10;;;18.87;;
11151;SDS011;5630;49.342;10.802;2022-10-13T12:06:03;25.30;;;19.33;;
11151;SDS011;5630;49.342;10.802;2022-10-13T12:08:44;22.23;;;17.10;;
11151;SDS011;5630;49.342;10.802;2022-10-13T12:11:28;24.57;;;18.03;;
11151;SDS011;5630;49.342;10.802;2022-10-13T12:13:57;24.40;;;17.20;;
11151;SDS011;5630;49.342;10.802;2022-10-13T12:16:23;19.73;;;16.23;;
11151;SDS011;5630;49.342;10.802;2022-10-13T12:18:50;24.53;;;17.50;;
11151;SDS011;5630;49.342;10.802;2022-10-13T12:21:20;24.70;;;16.90;;
11151;SDS011;5630;49.342;10.802;2022-10-13T12:23:47;22.30;;;16.97;;
11151;SDS011;5630;49.342;10.802;2022-10-13T12:26:21;22.13;;;17.10;;
11151;SDS011;5630;49.342;10.802;2022-10-13T12:31:25;23.07;;;18.27;;
11151;SDS011;5630;49.342;10.802;2022-10-13T12:36:29;20.10;;;16.43;;
11151;SDS011;5630;49.342;10.802;2022-10-13T12:38:58;21.07;;;16.23;;
11151;SDS011;5630;49.342;10.802;2022-10-13T12:41:33;19.93;;;16.37;;
11151;SDS011;5630;49.342;10.802;2022-10-13T12:44:01;24.87;;;17.77;;
11151;SDS011;5630;49.342;10.802;2022-10-13T12:47:01;27.07;;;17.90;;
11151;SDS011;5630;49.342;10.802;2022-10-13T12:49:27;23.53;;;18.07;;
11151;SDS011;5630;49.342;10.802;2022-10-13T12:52:10;19.87;;;16.70;;
11151;SDS011;5630;49.342;10.802;2022-10-13T12:54:49;23.60;;;16.93;;
11151;SDS011;5630;49.342;10.802;2022-10-13T12:57:18;23.03;;;17.33;;
11151;SDS011;5630;49.342;10.802;2022-10-13T12:59:46;21.30;;;16.87;;
11151;SDS011;5630;49.342;10.802;2022-10-13T13:02:18;21.23;;;17.60;;
11151;SDS011;5630;49.342;10.802;2022-10-13T13:04:48;22.93;;;17.30;;
11151;SDS011;5630;49.342;10.802;2022-10-13T13:07:47;25.10;;;15.60;;
11151;SDS011;5630;49.342;10.802;2022-10-13T13:10:16;23.47;;;16.80;;
11151;SDS011;5630;49.342;10.802;2022-10-13T13:12:44;20.93;;;16.57;;
11151;SDS011;5630;49.342;10.802;2022-10-13T13:15:29;25.47;;;17.53;;
11151;SDS011;5630;49.342;10.802;2022-10-13T13:18:20;22.87;;;16.30;;
11151;SDS011;5630;49.342;10.802;2022-10-13T13:20:51;20.83;;;15.63;;
11151;SDS011;5630;49.342;10.802;2022-10-13T13:23:18;20.83;;;15.80;;
11151;SDS011;5630;49.342;10.802;2022-10-13T13:25:47;20.53;;;15.60;;
11151;SDS011;5630;49.342;10.802;2022-10-13T13:28:34;17.73;;;14.10;;
11151;SDS011;5630;49.342;10.802;2022-10-13T13:31:00;19.80;;;15.37;;
11151;SDS011;5630;49.342;10.802;2022-10-13T13:33:26;20.80;;;15.13;;
11151;SDS011;5630;49.342;10.802;2022-10-13T13:35:51;27.23;;;16.33;;
11151;SDS011;5630;49.342;10.802;2022-10-13T13:38:17;20.67;;;15.60;;
11151;SDS011;5630;49.342;10.802;2022-10-13T13:40:43;19.93;;;15.33;;
11151;SDS011;5630;49.342;10.802;2022-10-13T13:43:08;22.83;;;15.20;;
11151;SDS011;5630;49.342;10.802;2022-10-13T13:45:34;16.40;;;13.57;;
11151;SDS011;5630;49.342;10.802;2022-10-13T13:48:00;18.23;;;15.07;;
11151;SDS011;5630;49.342;10.802;2022-10-13T13:50:27;20.10;;;13.90;;
11151;SDS011;5630;49.342;10.802;2022-10-13T13:52:57;20.00;;;14.13;;
11151;SDS011;5630;49.342;10.802;2022-10-13T13:55:23;22.50;;;14.03;;
11151;SDS011;5630;49.342;10.802;2022-10-13T13:57:50;20.63;;;12.97;;
11151;SDS011;5630;49.342;10.802;2022-10-13T14:00:16;17.03;;;13.10;;
11151;SDS011;5630;49.342;10.802;2022-10-13T14:02:42;21.00;;;13.13;;
11151;SDS011;5630;49.342;10.802;2022-10-13T14:05:09;17.07;;;12.57;;
11151;SDS011;5630;49.342;10.802;2022-10-13T14:07:35;21.40;;;13.23;;
11151;SDS011;5630;49.342;10.802;2022-10-13T14:10:00;20.70;;;13.13;;
11151;SDS011;5630;49.342;10.802;2022-10-13T14:12:28;20.63;;;13.67;;
11151;SDS011;5630;49.342;10.802;2022-10-13T14:14:54;17.00;;;13.20;;
11151;SDS011;5630;49.342;10.802;2022-10-13T14:17:20;21.10;;;13.00;;
11151;SDS011;5630;49.342;10.802;2022-10-13T14:19:46;21.30;;;12.63;;
11151;SDS011;5630;49.342;10.802;2022-10-13T14:22:12;16.80;;;11.73;;
11151;SDS011;5630;49.342;10.802;2022-10-13T14:24:37;16.90;;;12.40;;
11151;SDS011;5630;49.342;10.802;2022-10-13T14:27:03;17.83;;;12.50;;
11151;SDS011;5630;49.342;10.802;2022-10-13T14:29:29;24.80;;;12.67;;
11151;SDS011;5630;49.342;10.802;2022-10-13T14:31:54;17.73;;;11.33;;
11151;SDS011;5630;49.342;10.802;2022-10-13T14:34:20;18.20;;;11.63;;
11151;SDS011;5630;49.342;10.802;2022-10-13T14:36:45;16.93;;;10.60;;
11151;SDS011;5630;49.342;10.802;2022-10-13T14:39:11;18.03;;;12.20;;
11151;SDS011;5630;49.342;10.802;2022-10-13T14:41:37;21.43;;;10.87;;
11151;SDS011;5630;49.342;10.802;2022-10-13T14:44:03;15.03;;;11.90;;
11151;SDS011;5630;49.342;10.802;2022-10-13T14:46:28;14.50;;;10.67;;
11151;SDS011;5630;49.342;10.802;2022-10-13T14:48:54;19.17;;;11.73;;
11151;SDS011;5630;49.342;10.802;2022-10-13T14:51:21;20.63;;;12.13;;
11151;SDS011;5630;49.342;10.802;2022-10-13T14:53:47;21.63;;;12.70;;
11151;SDS011;5630;49.342;10.802;2022-10-13T14:56:20;18.63;;;12.63;;
11151;SDS011;5630;49.342;10.802;2022-10-13T14:58:47;21.17;;;12.27;;
11151;SDS011;5630;49.342;10.802;2022-10-13T15:01:14;16.83;;;11.43;;
11151;SDS011;5630;49.342;10.802;2022-10-13T15:03:40;18.30;;;12.03;;
11151;SDS011;5630;49.342;10.802;2022-10-13T15:06:07;16.60;;;12.40;;
11151;SDS011;5630;49.342;10.802;2022-10-13T15:08:39;17.40;;;12.13;;
11151;SDS011;5630;49.342;10.802;2022-10-13T15:11:04;18.93;;;11.33;;
11151;SDS011;5630;49.342;10.802;2022-10-13T15:13:30;20.93;;;12.40;;
11151;SDS011;5630;49.342;10.802;2022-10-13T15:15:56;20.17;;;12.60;;
11151;SDS011;5630;49.342;10.802;2022-10-13T15:18:25;22.47;;;12.37;;
11151;SDS011;5630;49.342;10.802;2022-10-13T15:20:51;18.70;;;12.17;;
11151;SDS011;5630;49.342;10.802;2022-10-13T15:23:18;21.70;;;12.93;;
11151;SDS011;5630;49.342;10.802;2022-10-13T15:25:51;24.80;;;13.50;;
11151;SDS011;5630;49.342;10.802;2022-10-13T15:28:19;19.40;;;11.93;;
11151;SDS011;5630;49.342;10.802;2022-10-13T15:30:45;19.33;;;12.20;;
11151;SDS011;5630;49.342;10.802;2022-10-13T15:33:11;16.97;;;12.37;;
11151;SDS011;5630;49.342;10.802;2022-10-13T15:35:37;24.43;;;13.43;;
11151;SDS011;5630;49.342;10.802;2022-10-13T15:38:02;17.03;;;12.60;;
11151;SDS011;5630;49.342;10.802;2022-10-13T15:40:28;19.73;;;12.97;;
11151;SDS011;5630;49.342;10.802;2022-10-13T15:42:57;22.43;;;13.03;;
11151;SDS011;5630;49.342;10.802;2022-10-13T15:45:26;17.13;;;12.47;;
11151;SDS011;5630;49.342;10.802;2022-10-13T15:47:51;15.13;;;11.90;;
11151;SDS011;5630;49.342;10.802;2022-10-13T15:50:17;18.63;;;12.70;;
11151;SDS011;5630;49.342;10.802;2022-10-13T15:52:43;23.00;;;12.67;;
11151;SDS011;5630;49.342;10.802;2022-10-13T15:55:10;21.57;;;13.20;;
11151;SDS011;5630;49.342;10.802;2022-10-13T15:57:36;21.63;;;13.07;;
11151;SDS011;5630;49.342;10.802;2022-10-13T16:00:03;23.30;;;13.20;;
11151;SDS011;5630;49.342;10.802;2022-10-13T16:02:30;22.50;;;12.80;;